createdAt,value
2023-05-02T00:00:45.525Z,100.00
2023-05-02T00:05:47.035Z,100.00
2023-05-02T00:10:48.877Z,100.00
2023-05-02T00:15:50.451Z,100.00
2023-05-02T00:20:51.958Z,100.00
2023-05-02T00:25:53.515Z,100.00
2023-05-02T00:30:55.013Z,100.00
2023-05-02T00:35:56.540Z,100.00
2023-05-02T00:40:58.163Z,100.00
2023-05-02T00:45:59.757Z,100.00
2023-05-02T00:51:04.908Z,100.00
2023-05-02T00:56:07.359Z,100.00
2023-05-02T01:01:44.157Z,100.00
2023-05-02T01:06:59.585Z,100.00
2023-05-02T01:12:25.499Z,100.00
2023-05-02T01:17:30.456Z,100.00
2023-05-02T01:22:33.599Z,100.00
2023-05-02T01:28:06.317Z,100.00
2023-05-02T01:33:11.969Z,100.00
2023-05-02T01:38:16.756Z,100.00
2023-05-02T01:43:20.234Z,100.00
2023-05-02T01:48:22.720Z,100.00
2023-05-02T01:53:30.244Z,100.00
2023-05-02T01:58:34.158Z,100.00
2023-05-02T02:03:35.745Z,100.00
2023-05-02T02:08:37.588Z,100.00
2023-05-02T02:13:47.903Z,100.00
2023-05-02T02:18:49.588Z,100.00
2023-05-02T02:23:54.093Z,100.00
2023-05-02T02:28:56.657Z,100.00
2023-05-02T02:33:58.665Z,100.00
2023-05-02T02:39:12.547Z,100.00
2023-05-02T02:44:28.533Z,100.00
2023-05-02T02:50:00.918Z,100.00
2023-05-02T02:55:22.775Z,100.00
2023-05-02T03:00:27.377Z,100.00
2023-05-02T03:05:30.442Z,100.00
2023-05-02T03:10:33.684Z,100.00
2023-05-02T03:16:23.296Z,100.00
2023-05-02T03:21:25.033Z,100.00
2023-05-02T03:26:27.992Z,100.00
2023-05-02T03:31:29.522Z,100.00
2023-05-02T03:36:31.644Z,100.00
2023-05-02T03:41:33.221Z,100.00
2023-05-02T03:46:40.577Z,100.00
2023-05-02T03:51:45.851Z,100.00
2023-05-02T03:56:49.248Z,100.00
2023-05-02T04:01:57.533Z,100.00
2023-05-02T04:07:09.908Z,100.00
2023-05-02T04:12:11.525Z,100.00
2023-05-02T04:17:17.259Z,100.00
2023-05-02T04:22:23.811Z,100.00
2023-05-02T04:27:30.032Z,100.00
2023-05-02T04:32:32.836Z,100.00
2023-05-02T04:37:35.970Z,100.00
2023-05-02T04:42:38.560Z,100.00
2023-05-02T04:47:48.520Z,100.00
2023-05-02T04:52:50.156Z,100.00
2023-05-02T04:57:51.881Z,100.00
2023-05-02T05:02:53.664Z,100.00
2023-05-02T05:07:55.494Z,100.00
2023-05-02T05:12:59.329Z,100.00
2023-05-02T05:18:02.516Z,100.00
2023-05-02T05:23:04.182Z,100.00
2023-05-02T05:28:06.306Z,100.00
2023-05-02T05:33:10.692Z,100.00
2023-05-02T05:38:12.941Z,100.00
2023-05-02T05:43:17.328Z,100.00
2023-05-02T05:48:19.513Z,100.00
2023-05-02T05:53:21.642Z,100.00
2023-05-02T05:58:24.539Z,100.00
2023-05-02T06:03:28.096Z,100.00
2023-05-02T06:08:29.975Z,100.00
2023-05-02T06:13:31.496Z,100.00
2023-05-02T06:18:33.134Z,100.00
2023-05-02T06:23:34.747Z,100.00
2023-05-02T06:28:36.247Z,100.00
2023-05-02T06:33:37.715Z,100.00
2023-05-02T06:38:39.168Z,100.00
2023-05-02T06:43:41.164Z,100.00
2023-05-02T06:48:42.879Z,100.00
2023-05-02T06:53:44.395Z,100.00
2023-05-02T06:58:45.933Z,100.00
2023-05-02T07:03:47.439Z,100.00
2023-05-02T07:08:48.987Z,100.00
2023-05-02T07:13:50.853Z,100.00
2023-05-02T07:18:52.368Z,100.00
2023-05-02T07:23:55.511Z,100.00
2023-05-02T07:28:56.981Z,100.00
2023-05-02T07:33:58.422Z,100.00
2023-05-02T07:38:59.868Z,100.00
2023-05-02T07:44:01.329Z,100.00
2023-05-02T07:49:02.865Z,100.00
2023-05-02T07:54:15.688Z,100.00
2023-05-02T07:59:17.174Z,100.00
2023-05-02T08:04:18.781Z,100.00
2023-05-02T08:09:20.656Z,100.00
2023-05-02T08:14:22.264Z,100.00
2023-05-02T08:19:23.867Z,100.00
2023-05-02T08:24:25.380Z,100.00
2023-05-02T08:29:26.842Z,100.00
2023-05-02T08:34:28.422Z,100.00
2023-05-02T08:39:33.078Z,100.00
2023-05-02T08:44:34.518Z,100.00
2023-05-02T08:49:37.157Z,100.00
2023-05-02T08:54:39.233Z,100.00
2023-05-02T08:59:42.740Z,100.00
2023-05-02T09:04:52.963Z,100.00
2023-05-02T09:09:54.766Z,100.00
2023-05-02T09:15:19.220Z,97.67
2023-05-02T09:20:22.369Z,99.32
2023-05-02T09:25:24.069Z,100.00
2023-05-02T09:30:26.612Z,99.91
2023-05-02T09:35:28.127Z,100.00
2023-05-02T09:40:30.658Z,97.14
2023-05-02T09:45:32.474Z,100.00
2023-05-02T09:50:37.985Z,99.63
2023-05-02T09:55:39.853Z,98.45
2023-05-02T10:00:43.546Z,94.95
2023-05-02T10:05:46.817Z,87.11
2023-05-02T10:10:54.756Z,83.75
2023-05-02T10:16:04.806Z,82.69
2023-05-02T10:21:11.208Z,92.09
2023-05-02T10:26:16.100Z,90.28
2023-05-02T10:31:18.772Z,79.32
2023-05-02T10:36:22.684Z,92.06
2023-05-02T10:41:27.554Z,88.59
2023-05-02T10:46:34.350Z,80.79
2023-05-02T10:51:37.808Z,79.89
2023-05-02T10:57:08.217Z,73.73
2023-05-02T11:02:28.413Z,81.39
2023-05-02T11:07:31.745Z,85.90
2023-05-02T11:12:47.732Z,76.41
2023-05-02T11:18:01.781Z,87.64
2023-05-02T11:23:16.053Z,89.17
2023-05-02T11:28:36.599Z,77.38
2023-05-02T11:33:38.890Z,83.45
2023-05-02T11:38:40.355Z,97.34
2023-05-02T11:43:41.807Z,89.83
2023-05-02T11:48:43.435Z,89.59
2023-05-02T11:53:44.963Z,88.70
2023-05-02T11:58:58.091Z,77.64
2023-05-02T12:04:03.665Z,83.39
2023-05-02T12:09:11.102Z,83.61
2023-05-02T12:14:12.671Z,86.04
2023-05-02T12:19:14.348Z,79.88
2023-05-02T12:24:16.065Z,80.02
2023-05-02T12:29:17.540Z,75.55
2023-05-02T12:34:38.800Z,76.88
2023-05-02T12:39:42.826Z,82.18
2023-05-02T12:44:46.649Z,77.52
2023-05-02T12:49:56.889Z,74.55
2023-05-02T12:55:16.099Z,75.90
2023-05-02T13:00:18.250Z,78.82
2023-05-02T13:05:20.654Z,67.46
2023-05-02T13:10:24.831Z,80.58
2023-05-02T13:15:26.411Z,82.78
2023-05-02T13:20:27.938Z,82.02
2023-05-02T13:25:29.388Z,83.74
2023-05-02T13:30:30.924Z,83.62
2023-05-02T13:35:33.497Z,86.47
2023-05-02T13:40:36.728Z,86.17
2023-05-02T13:45:38.180Z,87.65
2023-05-02T13:50:39.647Z,89.30
2023-05-02T13:55:41.125Z,93.04
2023-05-02T14:00:42.604Z,85.97
2023-05-02T14:05:44.089Z,83.08
2023-05-02T14:10:45.598Z,82.77
2023-05-02T14:15:47.088Z,91.66
2023-05-02T14:20:48.548Z,87.07
2023-05-02T14:25:49.997Z,83.05
2023-05-02T14:30:51.601Z,84.64
2023-05-02T14:35:53.121Z,78.71
2023-05-02T14:40:55.106Z,79.59
2023-05-02T14:45:57.720Z,83.37
2023-05-02T14:51:00.678Z,80.92
2023-05-02T14:56:02.187Z,79.72
2023-05-02T15:01:03.691Z,75.66
2023-05-02T15:06:05.331Z,80.33
2023-05-02T15:11:06.835Z,77.50
2023-05-02T15:16:10.581Z,75.44
2023-05-02T15:21:12.262Z,79.82
2023-05-02T15:26:13.805Z,74.58
2023-05-02T15:31:15.358Z,80.06
2023-05-02T15:36:17.956Z,84.09
2023-05-02T15:41:19.459Z,77.71
2023-05-02T15:46:21.002Z,79.14
2023-05-02T15:51:22.556Z,75.68
2023-05-02T15:56:24.549Z,82.35
2023-05-02T16:01:26.046Z,76.58
2023-05-02T16:06:27.678Z,75.71
2023-05-02T16:11:29.234Z,79.31
2023-05-02T16:16:30.844Z,78.62
2023-05-02T16:21:32.414Z,79.95
2023-05-02T16:26:34.264Z,76.04
2023-05-02T16:31:35.738Z,77.73
2023-05-02T16:36:37.193Z,79.78
2023-05-02T16:41:38.637Z,76.48
2023-05-02T16:46:41.357Z,74.43
2023-05-02T16:51:42.841Z,78.22
2023-05-02T16:56:44.305Z,79.39
2023-05-02T17:01:45.966Z,75.60
2023-05-02T17:06:47.754Z,78.60
2023-05-02T17:11:50.195Z,79.32
2023-05-02T17:16:51.684Z,79.09
2023-05-02T17:21:54.509Z,83.78
2023-05-02T17:26:56.011Z,82.34
2023-05-02T17:32:00.065Z,84.43
2023-05-02T17:37:01.573Z,84.19
2023-05-02T17:42:03.000Z,86.05
2023-05-02T17:47:04.811Z,84.74
2023-05-02T17:52:06.274Z,88.01
2023-05-02T17:57:08.294Z,88.09
2023-05-02T18:02:10.400Z,89.13
2023-05-02T18:07:12.033Z,87.68
2023-05-02T18:12:13.540Z,87.65
2023-05-02T18:17:14.985Z,91.41
2023-05-02T18:22:19.733Z,95.32
2023-05-02T18:27:21.340Z,96.85
2023-05-02T18:32:22.884Z,98.57
2023-05-02T18:37:31.144Z,98.50
2023-05-02T18:42:32.599Z,100.00
2023-05-02T18:47:34.899Z,100.00
2023-05-02T18:52:36.419Z,100.00
2023-05-02T18:57:37.977Z,100.00
2023-05-02T19:02:39.541Z,100.00
2023-05-02T19:07:41.032Z,100.00
2023-05-02T19:12:43.902Z,100.00
2023-05-02T19:17:45.629Z,100.00
2023-05-02T19:22:47.419Z,100.00
2023-05-02T19:27:49.864Z,100.00
2023-05-02T19:32:51.356Z,100.00
2023-05-02T19:37:52.839Z,100.00
2023-05-02T19:42:54.328Z,100.00
2023-05-02T19:47:56.408Z,100.00
2023-05-02T19:52:58.067Z,100.00
2023-05-02T19:58:04.310Z,100.00
2023-05-02T20:03:05.969Z,100.00
2023-05-02T20:08:07.492Z,100.00
2023-05-02T20:13:09.640Z,100.00
2023-05-02T20:18:11.185Z,100.00
2023-05-02T20:23:13.415Z,100.00
2023-05-02T20:28:15.026Z,100.00
2023-05-02T20:33:17.117Z,100.00
2023-05-02T20:38:20.352Z,100.00
2023-05-02T20:43:23.061Z,100.00
2023-05-02T20:48:24.710Z,100.00
2023-05-02T20:53:26.158Z,100.00
2023-05-02T20:58:27.646Z,100.00
2023-05-02T21:03:29.331Z,100.00
2023-05-02T21:08:30.954Z,100.00
2023-05-02T21:13:32.419Z,100.00
2023-05-02T21:18:33.867Z,100.00
2023-05-02T21:23:35.848Z,100.00
2023-05-02T21:28:38.699Z,100.00
2023-05-02T21:33:41.694Z,100.00
2023-05-02T21:38:43.151Z,100.00
2023-05-02T21:43:45.030Z,100.00
2023-05-02T21:48:46.556Z,100.00
2023-05-02T21:53:48.188Z,100.00
2023-05-02T21:58:51.379Z,100.00
2023-05-02T22:03:52.899Z,100.00
2023-05-02T22:08:54.349Z,100.00
2023-05-02T22:13:55.797Z,100.00
2023-05-02T22:18:57.963Z,100.00
2023-05-02T22:23:59.618Z,100.00
2023-05-02T22:29:01.106Z,100.00
2023-05-02T22:34:02.576Z,100.00
2023-05-02T22:39:06.097Z,100.00
2023-05-02T22:44:08.165Z,100.00
2023-05-02T22:49:10.396Z,100.00
2023-05-02T22:54:11.972Z,100.00
2023-05-02T22:59:13.497Z,100.00
2023-05-02T23:04:15.045Z,100.00
2023-05-02T23:09:16.611Z,100.00
2023-05-02T23:14:20.616Z,100.00
2023-05-02T23:19:22.114Z,100.00
2023-05-02T23:24:23.579Z,100.00
2023-05-02T23:29:25.654Z,100.00
2023-05-02T23:34:27.261Z,100.00
2023-05-02T23:39:29.098Z,100.00
2023-05-02T23:44:31.243Z,100.00
2023-05-02T23:49:32.743Z,100.00
2023-05-02T23:54:35.517Z,100.00
2023-05-02T23:59:37.046Z,100.00
